sensor_id;sensor_type;location;lat;lon;timestamp;temperature;humidity
26505;DHT22;19493;48.042;7.584;2023-07-29T00:01:12;17.30;99.90
26505;DHT22;19493;48.042;7.584;2023-07-29T00:03:37;17.30;99.90
26505;DHT22;19493;48.042;7.584;2023-07-29T00:06:03;17.30;99.90
26505;DHT22;19493;48.042;7.584;2023-07-29T00:08:28;17.20;99.90
26505;DHT22;19493;48.042;7.584;2023-07-29T00:10:54;17.20;99.90
26505;DHT22;19493;48.042;7.584;2023-07-29T00:13:20;17.10;99.90
26505;DHT22;19493;48.042;7.584;2023-07-29T00:15:46;17.10;99.90
26505;DHT22;19493;48.042;7.584;2023-07-29T00:18:11;17.00;99.90
26505;DHT22;19493;48.042;7.584;2023-07-29T00:20:37;16.90;99.90
26505;DHT22;19493;48.042;7.584;2023-07-29T00:23:02;16.90;99.90
26505;DHT22;19493;48.042;7.584;2023-07-29T00:25:28;16.90;99.90
26505;DHT22;19493;48.042;7.584;2023-07-29T00:27:58;16.90;99.90
26505;DHT22;19493;48.042;7.584;2023-07-29T00:30:24;16.90;99.90
26505;DHT22;19493;48.042;7.584;2023-07-29T00:32:49;16.90;99.90
26505;DHT22;19493;48.042;7.584;2023-07-29T00:35:15;16.90;99.90
26505;DHT22;19493;48.042;7.584;2023-07-29T00:37:40;17.00;99.90
26505;DHT22;19493;48.042;7.584;2023-07-29T00:40:12;17.00;99.90
26505;DHT22;19493;48.042;7.584;2023-07-29T00:42:39;17.00;99.90
26505;DHT22;19493;48.042;7.584;2023-07-29T00:45:05;17.10;99.90
26505;DHT22;19493;48.042;7.584;2023-07-29T00:47:33;17.00;99.90
26505;DHT22;19493;48.042;7.584;2023-07-29T00:49:58;17.00;99.90
26505;DHT22;19493;48.042;7.584;2023-07-29T00:52:24;17.00;99.90
26505;DHT22;19493;48.042;7.584;2023-07-29T00:54:50;16.90;99.90
26505;DHT22;19493;48.042;7.584;2023-07-29T00:57:16;16.90;99.90
26505;DHT22;19493;48.042;7.584;2023-07-29T00:59:43;16.90;99.90
26505;DHT22;19493;48.042;7.584;2023-07-29T01:02:09;16.90;99.90
26505;DHT22;19493;48.042;7.584;2023-07-29T01:04:35;16.90;99.90
26505;DHT22;19493;48.042;7.584;2023-07-29T01:07:21;16.90;99.90
26505;DHT22;19493;48.042;7.584;2023-07-29T01:13:05;16.90;99.90
26505;DHT22;19493;48.042;7.584;2023-07-29T01:18:12;16.80;99.90
26505;DHT22;19493;48.042;7.584;2023-07-29T01:20:40;16.80;99.90
26505;DHT22;19493;48.042;7.584;2023-07-29T01:23:09;16.80;99.90
26505;DHT22;19493;48.042;7.584;2023-07-29T01:25:34;16.80;99.90
26505;DHT22;19493;48.042;7.584;2023-07-29T01:28:00;16.90;99.90
26505;DHT22;19493;48.042;7.584;2023-07-29T01:30:30;16.90;99.90
26505;DHT22;19493;48.042;7.584;2023-07-29T01:35:54;17.00;99.90
26505;DHT22;19493;48.042;7.584;2023-07-29T01:38:35;17.00;99.90
26505;DHT22;19493;48.042;7.584;2023-07-29T01:41:01;17.10;99.90
26505;DHT22;19493;48.042;7.584;2023-07-29T01:43:29;17.10;99.90
26505;DHT22;19493;48.042;7.584;2023-07-29T01:45:54;17.10;99.90
26505;DHT22;19493;48.042;7.584;2023-07-29T01:48:20;17.20;99.90
26505;DHT22;19493;48.042;7.584;2023-07-29T01:50:46;17.20;99.90
26505;DHT22;19493;48.042;7.584;2023-07-29T01:53:11;17.20;99.90
26505;DHT22;19493;48.042;7.584;2023-07-29T01:55:37;17.20;99.90
26505;DHT22;19493;48.042;7.584;2023-07-29T01:58:02;17.10;99.90
26505;DHT22;19493;48.042;7.584;2023-07-29T02:00:28;17.10;99.90
26505;DHT22;19493;48.042;7.584;2023-07-29T02:02:53;17.10;99.90
26505;DHT22;19493;48.042;7.584;2023-07-29T02:05:19;17.10;99.90
26505;DHT22;19493;48.042;7.584;2023-07-29T02:07:45;17.10;99.90
26505;DHT22;19493;48.042;7.584;2023-07-29T02:10:10;17.20;99.90
26505;DHT22;19493;48.042;7.584;2023-07-29T02:12:36;17.20;99.90
26505;DHT22;19493;48.042;7.584;2023-07-29T02:15:02;17.30;99.90
26505;DHT22;19493;48.042;7.584;2023-07-29T02:17:28;17.30;99.90
26505;DHT22;19493;48.042;7.584;2023-07-29T02:19:53;17.30;99.90
26505;DHT22;19493;48.042;7.584;2023-07-29T02:22:19;17.40;99.90
26505;DHT22;19493;48.042;7.584;2023-07-29T02:24:46;17.40;99.90
26505;DHT22;19493;48.042;7.584;2023-07-29T02:27:12;17.40;99.90
26505;DHT22;19493;48.042;7.584;2023-07-29T02:29:37;17.50;99.90
26505;DHT22;19493;48.042;7.584;2023-07-29T02:32:03;17.50;99.90
26505;DHT22;19493;48.042;7.584;2023-07-29T02:34:29;17.40;99.90
26505;DHT22;19493;48.042;7.584;2023-07-29T02:36:55;17.50;99.90
26505;DHT22;19493;48.042;7.584;2023-07-29T02:39:20;17.50;99.90
26505;DHT22;19493;48.042;7.584;2023-07-29T02:41:47;17.50;99.90
26505;DHT22;19493;48.042;7.584;2023-07-29T02:44:12;17.50;99.90
26505;DHT22;19493;48.042;7.584;2023-07-29T02:46:38;17.50;99.90
26505;DHT22;19493;48.042;7.584;2023-07-29T02:49:04;17.50;99.90
26505;DHT22;19493;48.042;7.584;2023-07-29T02:51:32;17.60;99.90
26505;DHT22;19493;48.042;7.584;2023-07-29T02:53:58;17.60;99.90
26505;DHT22;19493;48.042;7.584;2023-07-29T02:56:24;17.60;99.90
26505;DHT22;19493;48.042;7.584;2023-07-29T02:58:49;17.60;99.90
26505;DHT22;19493;48.042;7.584;2023-07-29T03:01:17;17.60;99.90
26505;DHT22;19493;48.042;7.584;2023-07-29T03:03:43;17.60;99.90
26505;DHT22;19493;48.042;7.584;2023-07-29T03:06:10;17.60;99.90
26505;DHT22;19493;48.042;7.584;2023-07-29T03:08:36;17.60;99.90
26505;DHT22;19493;48.042;7.584;2023-07-29T03:11:10;17.60;99.90
26505;DHT22;19493;48.042;7.584;2023-07-29T03:13:39;17.60;99.90
26505;DHT22;19493;48.042;7.584;2023-07-29T03:16:15;17.50;99.90
26505;DHT22;19493;48.042;7.584;2023-07-29T03:18:43;17.50;99.90
26505;DHT22;19493;48.042;7.584;2023-07-29T03:21:10;17.50;99.90
26505;DHT22;19493;48.042;7.584;2023-07-29T03:23:37;17.40;99.90
26505;DHT22;19493;48.042;7.584;2023-07-29T03:26:04;17.30;99.90
26505;DHT22;19493;48.042;7.584;2023-07-29T03:28:38;17.30;99.90
26505;DHT22;19493;48.042;7.584;2023-07-29T03:31:04;17.40;99.90
26505;DHT22;19493;48.042;7.584;2023-07-29T03:33:30;17.40;99.90
26505;DHT22;19493;48.042;7.584;2023-07-29T03:35:56;17.40;99.90
26505;DHT22;19493;48.042;7.584;2023-07-29T03:38:21;17.40;99.90
26505;DHT22;19493;48.042;7.584;2023-07-29T03:40:47;17.50;99.90
26505;DHT22;19493;48.042;7.584;2023-07-29T03:43:12;17.50;99.90
26505;DHT22;19493;48.042;7.584;2023-07-29T03:45:39;17.50;99.90
26505;DHT22;19493;48.042;7.584;2023-07-29T03:48:05;17.50;99.90
26505;DHT22;19493;48.042;7.584;2023-07-29T03:50:34;17.50;99.90
26505;DHT22;19493;48.042;7.584;2023-07-29T03:53:01;17.50;99.90
26505;DHT22;19493;48.042;7.584;2023-07-29T03:55:26;17.50;99.90
26505;DHT22;19493;48.042;7.584;2023-07-29T03:57:52;17.50;99.90
26505;DHT22;19493;48.042;7.584;2023-07-29T04:00:17;17.50;99.90
26505;DHT22;19493;48.042;7.584;2023-07-29T04:02:43;17.60;99.90
26505;DHT22;19493;48.042;7.584;2023-07-29T04:05:10;17.70;99.90
26505;DHT22;19493;48.042;7.584;2023-07-29T04:07:36;17.80;99.90
26505;DHT22;19493;48.042;7.584;2023-07-29T04:10:03;17.70;99.90
26505;DHT22;19493;48.042;7.584;2023-07-29T04:12:28;17.80;99.90
26505;DHT22;19493;48.042;7.584;2023-07-29T04:14:54;17.80;99.90
26505;DHT22;19493;48.042;7.584;2023-07-29T04:17:19;17.80;99.90
26505;DHT22;19493;48.042;7.584;2023-07-29T04:19:45;17.80;99.90
26505;DHT22;19493;48.042;7.584;2023-07-29T04:22:11;17.80;99.90
26505;DHT22;19493;48.042;7.584;2023-07-29T04:24:37;17.80;99.90
26505;DHT22;19493;48.042;7.584;2023-07-29T04:27:03;17.90;99.90
26505;DHT22;19493;48.042;7.584;2023-07-29T04:29:29;17.90;99.90
26505;DHT22;19493;48.042;7.584;2023-07-29T04:31:55;18.00;99.90
26505;DHT22;19493;48.042;7.584;2023-07-29T04:34:20;18.00;99.90
26505;DHT22;19493;48.042;7.584;2023-07-29T04:36:46;18.20;99.90
26505;DHT22;19493;48.042;7.584;2023-07-29T04:39:12;18.40;99.90
26505;DHT22;19493;48.042;7.584;2023-07-29T04:41:38;18.40;99.90
26505;DHT22;19493;48.042;7.584;2023-07-29T04:44:03;18.60;99.90
26505;DHT22;19493;48.042;7.584;2023-07-29T04:46:29;18.70;99.90
26505;DHT22;19493;48.042;7.584;2023-07-29T04:48:54;18.80;99.90
26505;DHT22;19493;48.042;7.584;2023-07-29T04:51:20;19.00;99.90
26505;DHT22;19493;48.042;7.584;2023-07-29T04:53:46;19.10;99.90
26505;DHT22;19493;48.042;7.584;2023-07-29T04:56:11;19.30;99.90
26505;DHT22;19493;48.042;7.584;2023-07-29T04:58:37;19.40;99.90
26505;DHT22;19493;48.042;7.584;2023-07-29T05:01:03;19.60;99.90
26505;DHT22;19493;48.042;7.584;2023-07-29T05:03:29;19.70;99.90
26505;DHT22;19493;48.042;7.584;2023-07-29T05:05:55;19.80;99.90
26505;DHT22;19493;48.042;7.584;2023-07-29T05:08:21;19.90;99.90
26505;DHT22;19493;48.042;7.584;2023-07-29T05:10:51;20.00;99.90
26505;DHT22;19493;48.042;7.584;2023-07-29T05:13:17;20.00;99.90
26505;DHT22;19493;48.042;7.584;2023-07-29T05:15:43;19.90;99.90
26505;DHT22;19493;48.042;7.584;2023-07-29T05:18:08;19.70;99.90
26505;DHT22;19493;48.042;7.584;2023-07-29T05:20:34;19.50;99.90
26505;DHT22;19493;48.042;7.584;2023-07-29T05:22:59;19.30;99.90
26505;DHT22;19493;48.042;7.584;2023-07-29T05:25:26;19.20;99.90
26505;DHT22;19493;48.042;7.584;2023-07-29T05:27:52;19.10;99.90
26505;DHT22;19493;48.042;7.584;2023-07-29T05:30:17;19.10;99.90
26505;DHT22;19493;48.042;7.584;2023-07-29T05:32:43;19.10;99.90
26505;DHT22;19493;48.042;7.584;2023-07-29T05:35:08;19.10;99.90
26505;DHT22;19493;48.042;7.584;2023-07-29T05:37:37;19.20;99.90
26505;DHT22;19493;48.042;7.584;2023-07-29T05:40:03;19.30;99.90
26505;DHT22;19493;48.042;7.584;2023-07-29T05:42:29;19.30;99.90
26505;DHT22;19493;48.042;7.584;2023-07-29T05:44:55;19.40;99.90
26505;DHT22;19493;48.042;7.584;2023-07-29T05:47:20;19.50;99.90
26505;DHT22;19493;48.042;7.584;2023-07-29T05:49:46;19.60;99.90
26505;DHT22;19493;48.042;7.584;2023-07-29T05:52:11;19.60;99.90
26505;DHT22;19493;48.042;7.584;2023-07-29T05:54:37;19.70;99.90
26505;DHT22;19493;48.042;7.584;2023-07-29T05:57:02;19.60;99.90
26505;DHT22;19493;48.042;7.584;2023-07-29T05:59:28;19.60;99.90
26505;DHT22;19493;48.042;7.584;2023-07-29T06:01:54;19.50;99.90
26505;DHT22;19493;48.042;7.584;2023-07-29T06:04:20;19.40;99.90
26505;DHT22;19493;48.042;7.584;2023-07-29T06:06:46;19.30;99.90
26505;DHT22;19493;48.042;7.584;2023-07-29T06:09:11;19.20;99.90
26505;DHT22;19493;48.042;7.584;2023-07-29T06:11:37;19.20;99.90
26505;DHT22;19493;48.042;7.584;2023-07-29T06:14:02;19.20;99.90
26505;DHT22;19493;48.042;7.584;2023-07-29T06:16:28;19.20;99.90
26505;DHT22;19493;48.042;7.584;2023-07-29T06:18:56;19.20;99.90
26505;DHT22;19493;48.042;7.584;2023-07-29T06:21:22;19.30;99.90
26505;DHT22;19493;48.042;7.584;2023-07-29T06:23:47;19.30;99.90
26505;DHT22;19493;48.042;7.584;2023-07-29T06:26:13;19.30;99.90
26505;DHT22;19493;48.042;7.584;2023-07-29T06:28:42;19.30;99.90
26505;DHT22;19493;48.042;7.584;2023-07-29T06:31:07;19.20;99.90
26505;DHT22;19493;48.042;7.584;2023-07-29T06:33:33;19.30;99.90
26505;DHT22;19493;48.042;7.584;2023-07-29T06:35:58;19.30;99.90
26505;DHT22;19493;48.042;7.584;2023-07-29T06:38:25;19.30;99.90
26505;DHT22;19493;48.042;7.584;2023-07-29T06:40:51;19.30;99.90
26505;DHT22;19493;48.042;7.584;2023-07-29T06:43:17;19.20;99.90
26505;DHT22;19493;48.042;7.584;2023-07-29T06:45:43;19.20;99.90
26505;DHT22;19493;48.042;7.584;2023-07-29T06:48:09;19.20;99.90
26505;DHT22;19493;48.042;7.584;2023-07-29T06:50:34;19.30;99.90
26505;DHT22;19493;48.042;7.584;2023-07-29T06:53:00;19.30;99.90
26505;DHT22;19493;48.042;7.584;2023-07-29T06:55:25;19.40;99.90
26505;DHT22;19493;48.042;7.584;2023-07-29T06:57:51;19.50;99.90
26505;DHT22;19493;48.042;7.584;2023-07-29T07:00:17;19.60;99.90
26505;DHT22;19493;48.042;7.584;2023-07-29T07:02:43;19.70;99.90
26505;DHT22;19493;48.042;7.584;2023-07-29T07:05:09;19.90;99.90
26505;DHT22;19493;48.042;7.584;2023-07-29T07:07:34;20.00;99.90
26505;DHT22;19493;48.042;7.584;2023-07-29T07:10:00;20.10;99.90
26505;DHT22;19493;48.042;7.584;2023-07-29T07:12:26;20.20;99.90
26505;DHT22;19493;48.042;7.584;2023-07-29T07:14:51;20.20;99.90
26505;DHT22;19493;48.042;7.584;2023-07-29T07:17:17;20.20;99.90
26505;DHT22;19493;48.042;7.584;2023-07-29T07:19:43;20.40;99.90
26505;DHT22;19493;48.042;7.584;2023-07-29T07:22:09;20.50;99.90
26505;DHT22;19493;48.042;7.584;2023-07-29T07:24:35;20.80;99.90
26505;DHT22;19493;48.042;7.584;2023-07-29T07:27:00;21.20;99.90
26505;DHT22;19493;48.042;7.584;2023-07-29T07:29:26;21.60;99.90
26505;DHT22;19493;48.042;7.584;2023-07-29T07:31:52;22.10;99.90
26505;DHT22;19493;48.042;7.584;2023-07-29T07:34:21;22.40;99.90
26505;DHT22;19493;48.042;7.584;2023-07-29T07:36:48;22.70;99.90
26505;DHT22;19493;48.042;7.584;2023-07-29T07:39:14;23.00;99.90
26505;DHT22;19493;48.042;7.584;2023-07-29T07:41:40;23.20;99.90
26505;DHT22;19493;48.042;7.584;2023-07-29T07:44:06;23.20;99.90
26505;DHT22;19493;48.042;7.584;2023-07-29T07:46:32;23.30;99.90
26505;DHT22;19493;48.042;7.584;2023-07-29T07:48:57;23.60;99.90
26505;DHT22;19493;48.042;7.584;2023-07-29T07:51:23;24.10;99.90
26505;DHT22;19493;48.042;7.584;2023-07-29T07:53:48;24.70;99.90
26505;DHT22;19493;48.042;7.584;2023-07-29T07:56:14;24.80;99.90
26505;DHT22;19493;48.042;7.584;2023-07-29T07:58:40;24.90;99.90
26505;DHT22;19493;48.042;7.584;2023-07-29T08:01:07;24.60;99.90
26505;DHT22;19493;48.042;7.584;2023-07-29T08:03:33;24.50;99.90
26505;DHT22;19493;48.042;7.584;2023-07-29T08:05:59;24.50;99.90
26505;DHT22;19493;48.042;7.584;2023-07-29T08:08:26;24.60;99.90
26505;DHT22;19493;48.042;7.584;2023-07-29T08:10:53;24.70;99.90
26505;DHT22;19493;48.042;7.584;2023-07-29T08:13:19;24.60;99.90
26505;DHT22;19493;48.042;7.584;2023-07-29T08:15:51;24.60;99.90
26505;DHT22;19493;48.042;7.584;2023-07-29T08:18:17;24.70;99.90
26505;DHT22;19493;48.042;7.584;2023-07-29T08:21:00;24.70;99.90
26505;DHT22;19493;48.042;7.584;2023-07-29T08:23:30;24.70;99.90
26505;DHT22;19493;48.042;7.584;2023-07-29T08:25:57;24.70;99.90
26505;DHT22;19493;48.042;7.584;2023-07-29T08:28:27;24.90;99.90
26505;DHT22;19493;48.042;7.584;2023-07-29T08:30:53;24.90;99.90
26505;DHT22;19493;48.042;7.584;2023-07-29T08:33:19;24.90;99.90
26505;DHT22;19493;48.042;7.584;2023-07-29T08:35:44;25.10;99.90
26505;DHT22;19493;48.042;7.584;2023-07-29T08:38:10;25.20;99.90
26505;DHT22;19493;48.042;7.584;2023-07-29T08:40:37;25.40;99.90
26505;DHT22;19493;48.042;7.584;2023-07-29T08:43:06;25.70;99.90
26505;DHT22;19493;48.042;7.584;2023-07-29T08:45:35;26.10;99.90
26505;DHT22;19493;48.042;7.584;2023-07-29T08:48:03;25.90;99.90
26505;DHT22;19493;48.042;7.584;2023-07-29T08:50:32;26.00;99.90
26505;DHT22;19493;48.042;7.584;2023-07-29T08:52:59;26.10;99.90
26505;DHT22;19493;48.042;7.584;2023-07-29T08:55:26;26.30;99.90
26505;DHT22;19493;48.042;7.584;2023-07-29T09:00:19;26.30;99.90
26505;DHT22;19493;48.042;7.584;2023-07-29T09:02:44;26.40;99.90
26505;DHT22;19493;48.042;7.584;2023-07-29T09:05:10;26.30;99.90
26505;DHT22;19493;48.042;7.584;2023-07-29T09:07:36;26.30;99.90
26505;DHT22;19493;48.042;7.584;2023-07-29T09:10:02;26.50;99.90
26505;DHT22;19493;48.042;7.584;2023-07-29T09:12:28;26.50;99.90
26505;DHT22;19493;48.042;7.584;2023-07-29T09:14:53;26.60;99.90
26505;DHT22;19493;48.042;7.584;2023-07-29T09:17:22;26.70;99.90
26505;DHT22;19493;48.042;7.584;2023-07-29T09:19:49;26.90;99.90
26505;DHT22;19493;48.042;7.584;2023-07-29T09:22:18;28.10;99.90
26505;DHT22;19493;48.042;7.584;2023-07-29T09:24:46;28.90;99.90
26505;DHT22;19493;48.042;7.584;2023-07-29T09:27:24;28.80;99.90
26505;DHT22;19493;48.042;7.584;2023-07-29T09:32:24;28.40;99.90
26505;DHT22;19493;48.042;7.584;2023-07-29T09:34:50;28.00;99.90
26505;DHT22;19493;48.042;7.584;2023-07-29T09:37:18;27.80;99.90
26505;DHT22;19493;48.042;7.584;2023-07-29T09:39:46;27.40;99.90
26505;DHT22;19493;48.042;7.584;2023-07-29T09:42:18;27.30;99.90
26505;DHT22;19493;48.042;7.584;2023-07-29T09:44:44;27.00;99.90
26505;DHT22;19493;48.042;7.584;2023-07-29T09:47:09;26.70;99.90
26505;DHT22;19493;48.042;7.584;2023-07-29T09:49:35;26.40;99.90
26505;DHT22;19493;48.042;7.584;2023-07-29T09:52:04;26.20;99.90
26505;DHT22;19493;48.042;7.584;2023-07-29T09:54:30;26.10;99.90
26505;DHT22;19493;48.042;7.584;2023-07-29T09:56:56;26.00;99.90
26505;DHT22;19493;48.042;7.584;2023-07-29T09:59:23;26.00;99.90
26505;DHT22;19493;48.042;7.584;2023-07-29T10:01:49;26.00;99.90
26505;DHT22;19493;48.042;7.584;2023-07-29T10:04:16;26.00;99.90
26505;DHT22;19493;48.042;7.584;2023-07-29T10:06:42;26.10;99.90
26505;DHT22;19493;48.042;7.584;2023-07-29T10:09:10;26.10;99.90
26505;DHT22;19493;48.042;7.584;2023-07-29T10:11:37;26.20;99.90
26505;DHT22;19493;48.042;7.584;2023-07-29T10:14:03;26.40;99.90
26505;DHT22;19493;48.042;7.584;2023-07-29T10:16:29;26.20;99.90
26505;DHT22;19493;48.042;7.584;2023-07-29T10:18:55;26.20;99.90
26505;DHT22;19493;48.042;7.584;2023-07-29T10:21:22;26.40;99.90
26505;DHT22;19493;48.042;7.584;2023-07-29T10:23:50;26.50;99.90
26505;DHT22;19493;48.042;7.584;2023-07-29T10:26:19;26.80;99.90
26505;DHT22;19493;48.042;7.584;2023-07-29T10:28:47;27.10;99.90
26505;DHT22;19493;48.042;7.584;2023-07-29T10:31:15;27.90;99.90
26505;DHT22;19493;48.042;7.584;2023-07-29T10:33:41;28.00;99.90
26505;DHT22;19493;48.042;7.584;2023-07-29T10:36:08;27.80;99.90
26505;DHT22;19493;48.042;7.584;2023-07-29T10:38:34;27.70;99.90
26505;DHT22;19493;48.042;7.584;2023-07-29T10:41:00;27.50;99.90
26505;DHT22;19493;48.042;7.584;2023-07-29T10:45:52;27.40;99.90
26505;DHT22;19493;48.042;7.584;2023-07-29T10:51:30;27.30;99.90
26505;DHT22;19493;48.042;7.584;2023-07-29T10:54:21;27.30;99.90
26505;DHT22;19493;48.042;7.584;2023-07-29T10:56:49;27.20;99.90
26505;DHT22;19493;48.042;7.584;2023-07-29T11:01:52;27.60;99.90
26505;DHT22;19493;48.042;7.584;2023-07-29T11:14:39;28.80;99.90
26505;DHT22;19493;48.042;7.584;2023-07-29T11:17:05;28.50;99.90
26505;DHT22;19493;48.042;7.584;2023-07-29T11:19:31;28.50;99.90
26505;DHT22;19493;48.042;7.584;2023-07-29T11:21:56;28.60;99.90
26505;DHT22;19493;48.042;7.584;2023-07-29T11:24:23;28.80;99.90
26505;DHT22;19493;48.042;7.584;2023-07-29T11:26:48;28.80;99.90
26505;DHT22;19493;48.042;7.584;2023-07-29T11:29:16;28.80;99.90
26505;DHT22;19493;48.042;7.584;2023-07-29T11:31:41;29.00;99.90
26505;DHT22;19493;48.042;7.584;2023-07-29T11:34:07;29.10;99.90
26505;DHT22;19493;48.042;7.584;2023-07-29T11:36:32;29.60;99.90
26505;DHT22;19493;48.042;7.584;2023-07-29T11:38:58;30.90;99.90
26505;DHT22;19493;48.042;7.584;2023-07-29T11:41:23;31.10;99.90
26505;DHT22;19493;48.042;7.584;2023-07-29T11:43:49;31.20;99.90
26505;DHT22;19493;48.042;7.584;2023-07-29T11:46:14;30.80;99.90
26505;DHT22;19493;48.042;7.584;2023-07-29T11:48:44;30.50;99.90
26505;DHT22;19493;48.042;7.584;2023-07-29T11:51:10;30.10;99.90
26505;DHT22;19493;48.042;7.584;2023-07-29T11:53:37;29.80;99.90
26505;DHT22;19493;48.042;7.584;2023-07-29T11:56:03;29.90;99.90
26505;DHT22;19493;48.042;7.584;2023-07-29T11:58:30;29.90;99.90
26505;DHT22;19493;48.042;7.584;2023-07-29T12:00:56;30.00;99.90
26505;DHT22;19493;48.042;7.584;2023-07-29T12:03:22;30.50;99.90
26505;DHT22;19493;48.042;7.584;2023-07-29T12:05:48;30.60;99.90
26505;DHT22;19493;48.042;7.584;2023-07-29T12:08:14;30.90;99.90
26505;DHT22;19493;48.042;7.584;2023-07-29T12:10:40;31.30;99.90
26505;DHT22;19493;48.042;7.584;2023-07-29T12:13:07;31.40;99.90
26505;DHT22;19493;48.042;7.584;2023-07-29T12:15:33;31.00;99.10
26505;DHT22;19493;48.042;7.584;2023-07-29T12:17:59;30.50;99.20
26505;DHT22;19493;48.042;7.584;2023-07-29T12:20:25;30.10;99.10
26505;DHT22;19493;48.042;7.584;2023-07-29T12:22:55;29.80;99.10
26505;DHT22;19493;48.042;7.584;2023-07-29T12:25:22;29.40;99.50
26505;DHT22;19493;48.042;7.584;2023-07-29T12:27:48;29.30;99.90
26505;DHT22;19493;48.042;7.584;2023-07-29T12:30:13;29.20;99.90
26505;DHT22;19493;48.042;7.584;2023-07-29T12:32:46;29.10;99.90
26505;DHT22;19493;48.042;7.584;2023-07-29T12:35:13;29.00;99.90
26505;DHT22;19493;48.042;7.584;2023-07-29T12:37:39;29.00;99.90
26505;DHT22;19493;48.042;7.584;2023-07-29T12:40:23;29.30;99.90
26505;DHT22;19493;48.042;7.584;2023-07-29T12:42:50;29.30;99.90
26505;DHT22;19493;48.042;7.584;2023-07-29T12:45:19;29.50;99.90
26505;DHT22;19493;48.042;7.584;2023-07-29T12:47:45;29.60;99.90
26505;DHT22;19493;48.042;7.584;2023-07-29T12:50:10;29.60;99.90
26505;DHT22;19493;48.042;7.584;2023-07-29T12:52:36;29.70;99.50
26505;DHT22;19493;48.042;7.584;2023-07-29T12:55:02;29.60;98.80
26505;DHT22;19493;48.042;7.584;2023-07-29T12:57:27;29.60;98.90
26505;DHT22;19493;48.042;7.584;2023-07-29T12:59:53;29.90;99.00
26505;DHT22;19493;48.042;7.584;2023-07-29T13:02:21;30.40;98.90
26505;DHT22;19493;48.042;7.584;2023-07-29T13:04:47;31.10;97.60
26505;DHT22;19493;48.042;7.584;2023-07-29T13:07:12;32.10;96.20
26505;DHT22;19493;48.042;7.584;2023-07-29T13:09:38;33.20;94.60
26505;DHT22;19493;48.042;7.584;2023-07-29T13:12:08;34.00;91.90
26505;DHT22;19493;48.042;7.584;2023-07-29T13:14:45;34.20;91.10
26505;DHT22;19493;48.042;7.584;2023-07-29T13:17:25;34.30;90.30
26505;DHT22;19493;48.042;7.584;2023-07-29T13:19:51;34.60;88.90
26505;DHT22;19493;48.042;7.584;2023-07-29T13:22:17;34.20;86.10
26505;DHT22;19493;48.042;7.584;2023-07-29T13:24:42;33.30;85.30
26505;DHT22;19493;48.042;7.584;2023-07-29T13:27:08;32.20;85.50
26505;DHT22;19493;48.042;7.584;2023-07-29T13:29:33;31.30;87.40
26505;DHT22;19493;48.042;7.584;2023-07-29T13:31:59;30.90;89.10
26505;DHT22;19493;48.042;7.584;2023-07-29T13:34:24;30.60;90.40
26505;DHT22;19493;48.042;7.584;2023-07-29T13:36:50;30.40;90.90
26505;DHT22;19493;48.042;7.584;2023-07-29T13:39:16;29.80;90.50
26505;DHT22;19493;48.042;7.584;2023-07-29T13:41:41;29.60;91.20
26505;DHT22;19493;48.042;7.584;2023-07-29T13:44:07;29.30;91.10
26505;DHT22;19493;48.042;7.584;2023-07-29T13:46:33;28.90;91.70
26505;DHT22;19493;48.042;7.584;2023-07-29T13:48:58;28.50;92.30
26505;DHT22;19493;48.042;7.584;2023-07-29T13:51:24;28.30;93.10
26505;DHT22;19493;48.042;7.584;2023-07-29T13:53:49;28.20;93.70
26505;DHT22;19493;48.042;7.584;2023-07-29T13:56:15;28.10;94.80
26505;DHT22;19493;48.042;7.584;2023-07-29T13:58:41;28.00;96.00
26505;DHT22;19493;48.042;7.584;2023-07-29T14:01:06;28.00;97.80
26505;DHT22;19493;48.042;7.584;2023-07-29T14:03:32;27.90;99.10
26505;DHT22;19493;48.042;7.584;2023-07-29T14:05:57;27.90;99.40
26505;DHT22;19493;48.042;7.584;2023-07-29T14:08:23;27.90;99.20
26505;DHT22;19493;48.042;7.584;2023-07-29T14:10:49;27.80;99.40
26505;DHT22;19493;48.042;7.584;2023-07-29T14:13:15;27.90;99.50
26505;DHT22;19493;48.042;7.584;2023-07-29T14:15:40;28.00;99.90
26505;DHT22;19493;48.042;7.584;2023-07-29T14:18:06;28.10;99.70
26505;DHT22;19493;48.042;7.584;2023-07-29T14:20:32;27.90;99.90
26505;DHT22;19493;48.042;7.584;2023-07-29T14:22:58;27.50;99.90
26505;DHT22;19493;48.042;7.584;2023-07-29T14:25:23;27.10;99.90
26505;DHT22;19493;48.042;7.584;2023-07-29T14:27:50;26.70;99.90
26505;DHT22;19493;48.042;7.584;2023-07-29T14:30:15;26.50;99.90
26505;DHT22;19493;48.042;7.584;2023-07-29T14:32:41;26.30;99.90
26505;DHT22;19493;48.042;7.584;2023-07-29T14:35:07;26.00;99.90
26505;DHT22;19493;48.042;7.584;2023-07-29T14:37:34;25.70;99.90
26505;DHT22;19493;48.042;7.584;2023-07-29T14:42:26;24.20;99.90
26505;DHT22;19493;48.042;7.584;2023-07-29T14:44:52;23.10;99.90
26505;DHT22;19493;48.042;7.584;2023-07-29T14:47:18;22.30;99.90
26505;DHT22;19493;48.042;7.584;2023-07-29T14:49:44;21.60;99.90
26505;DHT22;19493;48.042;7.584;2023-07-29T14:52:10;21.10;99.90
26505;DHT22;19493;48.042;7.584;2023-07-29T14:54:36;20.90;99.90
26505;DHT22;19493;48.042;7.584;2023-07-29T14:57:02;20.90;99.90
26505;DHT22;19493;48.042;7.584;2023-07-29T14:59:28;21.10;99.90
26505;DHT22;19493;48.042;7.584;2023-07-29T15:01:55;21.30;99.90
26505;DHT22;19493;48.042;7.584;2023-07-29T15:04:21;21.40;99.90
26505;DHT22;19493;48.042;7.584;2023-07-29T15:06:46;21.50;99.90
26505;DHT22;19493;48.042;7.584;2023-07-29T15:09:12;21.50;99.90
26505;DHT22;19493;48.042;7.584;2023-07-29T15:11:38;21.60;99.90
26505;DHT22;19493;48.042;7.584;2023-07-29T15:14:03;21.90;99.90
26505;DHT22;19493;48.042;7.584;2023-07-29T15:16:29;22.40;99.90
26505;DHT22;19493;48.042;7.584;2023-07-29T15:18:55;23.10;99.90
26505;DHT22;19493;48.042;7.584;2023-07-29T15:21:21;23.80;99.90
26505;DHT22;19493;48.042;7.584;2023-07-29T15:23:46;24.20;99.90
26505;DHT22;19493;48.042;7.584;2023-07-29T15:26:12;24.30;99.90
26505;DHT22;19493;48.042;7.584;2023-07-29T15:28:38;24.80;99.90
26505;DHT22;19493;48.042;7.584;2023-07-29T15:31:03;25.10;99.90
26505;DHT22;19493;48.042;7.584;2023-07-29T15:33:29;25.20;99.90
26505;DHT22;19493;48.042;7.584;2023-07-29T15:35:55;25.50;99.90
26505;DHT22;19493;48.042;7.584;2023-07-29T15:38:20;25.90;99.90
26505;DHT22;19493;48.042;7.584;2023-07-29T15:40:46;26.70;99.90
26505;DHT22;19493;48.042;7.584;2023-07-29T15:43:14;26.90;99.90
26505;DHT22;19493;48.042;7.584;2023-07-29T15:45:40;26.80;99.90
26505;DHT22;19493;48.042;7.584;2023-07-29T15:48:05;26.50;99.90
26505;DHT22;19493;48.042;7.584;2023-07-29T15:50:31;26.30;99.90
26505;DHT22;19493;48.042;7.584;2023-07-29T15:52:56;26.20;99.90
26505;DHT22;19493;48.042;7.584;2023-07-29T15:57:49;24.90;99.90
26505;DHT22;19493;48.042;7.584;2023-07-29T16:00:14;24.30;99.90
26505;DHT22;19493;48.042;7.584;2023-07-29T16:02:40;23.90;99.90